createdAt,value
2022-12-06T00:03:16.032Z,75.64
2022-12-06T00:08:15.999Z,75.67
2022-12-06T00:13:15.847Z,75.68
2022-12-06T00:18:15.798Z,75.67
2022-12-06T00:23:15.734Z,75.66
2022-12-06T00:28:15.665Z,75.65
2022-12-06T00:33:15.574Z,75.67
2022-12-06T00:38:15.557Z,75.67
2022-12-06T00:43:15.464Z,75.68
2022-12-06T00:48:15.436Z,75.72
2022-12-06T00:53:15.379Z,75.74
2022-12-06T00:58:15.296Z,75.75
2022-12-06T01:03:15.308Z,75.76
2022-12-06T01:08:38.879Z,75.41
2022-12-06T01:13:31.255Z,75.68
2022-12-06T01:18:31.205Z,75.83
2022-12-06T01:23:31.155Z,75.82
2022-12-06T01:28:31.084Z,75.80
2022-12-06T01:33:31.027Z,75.81
2022-12-06T01:38:30.948Z,75.80
2022-12-06T01:43:30.910Z,75.78
2022-12-06T01:48:30.842Z,75.78
2022-12-06T01:53:30.774Z,75.79
2022-12-06T01:58:30.691Z,75.79
2022-12-06T02:03:30.648Z,75.79
2022-12-06T02:08:30.556Z,75.81
2022-12-06T02:13:30.520Z,75.84
2022-12-06T02:18:30.428Z,75.84
2022-12-06T02:23:30.394Z,75.86
2022-12-06T02:28:30.310Z,75.86
2022-12-06T02:33:30.269Z,75.87
2022-12-06T02:38:30.177Z,75.87
2022-12-06T02:43:30.152Z,75.88
2022-12-06T02:48:30.047Z,75.87
2022-12-06T02:53:29.994Z,75.89
2022-12-06T02:58:29.922Z,75.87
2022-12-06T03:03:29.882Z,75.87
2022-12-06T03:08:29.806Z,75.88
2022-12-06T03:13:29.755Z,75.88
2022-12-06T03:18:29.702Z,75.89
2022-12-06T03:23:29.619Z,75.91
2022-12-06T03:28:29.569Z,75.93
2022-12-06T03:33:29.491Z,75.95
2022-12-06T03:38:29.399Z,75.95
2022-12-06T03:43:29.353Z,75.93
2022-12-06T03:48:29.283Z,75.95
2022-12-06T03:53:29.240Z,75.96
2022-12-06T03:58:29.151Z,75.95
2022-12-06T04:03:29.122Z,75.96
2022-12-06T04:08:29.034Z,75.97
2022-12-06T04:13:28.982Z,75.96
2022-12-06T04:18:28.895Z,76.00
2022-12-06T04:23:28.855Z,75.99
2022-12-06T04:28:28.776Z,75.99
2022-12-06T04:33:28.722Z,75.98
2022-12-06T04:38:28.646Z,75.98
2022-12-06T04:43:28.619Z,76.00
2022-12-06T04:48:28.516Z,76.01
2022-12-06T04:53:28.479Z,76.04
2022-12-06T04:58:28.382Z,76.04
2022-12-06T05:03:28.495Z,76.04
2022-12-06T05:08:28.256Z,76.04
2022-12-06T05:13:28.201Z,76.05
2022-12-06T05:18:37.548Z,75.76
2022-12-06T05:23:29.966Z,76.03
2022-12-06T05:28:29.948Z,76.19
2022-12-06T05:33:29.821Z,76.20
2022-12-06T05:38:29.775Z,76.19
2022-12-06T05:43:29.702Z,76.18
2022-12-06T05:48:29.635Z,76.17
2022-12-06T05:53:29.582Z,76.18
2022-12-06T05:58:29.527Z,76.18
2022-12-06T06:03:29.502Z,76.18
2022-12-06T06:08:29.406Z,76.21
2022-12-06T06:13:29.326Z,76.21
2022-12-06T06:18:29.251Z,76.21
2022-12-06T06:23:29.216Z,76.19
2022-12-06T06:28:29.140Z,76.21
2022-12-06T06:33:29.077Z,76.24
2022-12-06T06:38:29.014Z,76.26
2022-12-06T06:43:28.938Z,76.28
2022-12-06T06:48:28.887Z,76.29
2022-12-06T06:53:28.818Z,76.29
2022-12-06T06:58:28.759Z,76.28
2022-12-06T07:03:28.686Z,76.27
2022-12-06T07:08:28.638Z,76.27
2022-12-06T07:13:28.559Z,76.26
2022-12-06T07:18:28.489Z,76.27
2022-12-06T07:23:28.417Z,76.27
2022-12-06T07:28:28.366Z,76.29
2022-12-06T07:33:28.282Z,76.27
2022-12-06T07:38:28.270Z,76.26
2022-12-06T07:43:28.199Z,76.24
2022-12-06T07:48:28.935Z,76.21
2022-12-06T07:53:28.037Z,76.20
2022-12-06T07:58:27.993Z,76.16
2022-12-06T08:03:27.923Z,76.11
2022-12-06T08:08:29.009Z,76.07
2022-12-06T08:13:27.792Z,76.05
2022-12-06T08:18:28.986Z,76.03
2022-12-06T08:23:33.631Z,75.97
2022-12-06T08:28:28.621Z,75.99
2022-12-06T08:33:27.515Z,75.97
2022-12-06T08:38:27.521Z,75.95
2022-12-06T08:43:27.419Z,75.93
2022-12-06T08:48:27.373Z,75.91
2022-12-06T08:53:27.245Z,75.89
2022-12-06T08:58:27.245Z,75.88
2022-12-06T09:03:27.145Z,75.87
2022-12-06T09:08:27.112Z,75.83
2022-12-06T09:13:27.016Z,75.80
2022-12-06T09:18:26.965Z,75.76
2022-12-06T09:23:26.872Z,75.70
2022-12-06T09:28:26.851Z,75.62
2022-12-06T09:33:26.766Z,75.55
2022-12-06T09:38:26.705Z,75.59
2022-12-06T09:43:27.601Z,75.54
2022-12-06T09:48:26.608Z,75.60
2022-12-06T09:53:26.498Z,75.64
2022-12-06T09:58:26.465Z,75.65
2022-12-06T10:03:26.455Z,75.67
2022-12-06T10:08:26.484Z,75.64
2022-12-06T10:13:26.227Z,75.64
2022-12-06T10:18:26.236Z,75.70
2022-12-06T10:23:26.145Z,75.71
2022-12-06T10:28:26.104Z,75.71
2022-12-06T10:33:25.998Z,75.65
2022-12-06T10:38:26.000Z,75.57
2022-12-06T10:43:25.904Z,75.54
2022-12-06T10:48:25.817Z,75.46
2022-12-06T10:53:25.728Z,75.47
2022-12-06T10:58:25.685Z,75.52
2022-12-06T11:03:25.607Z,75.53
2022-12-06T11:08:25.576Z,75.46
2022-12-06T11:13:25.473Z,75.38
2022-12-06T11:18:25.429Z,75.32
2022-12-06T11:23:25.326Z,75.25
2022-12-06T11:28:25.330Z,74.99
2022-12-06T11:33:25.210Z,75.02
2022-12-06T11:38:25.169Z,74.99
2022-12-06T11:43:25.143Z,75.03
2022-12-06T11:48:25.029Z,75.15
2022-12-06T11:53:24.970Z,75.25
2022-12-06T11:58:24.924Z,75.30
2022-12-06T12:03:24.886Z,75.23
2022-12-06T12:08:28.422Z,75.08
2022-12-06T12:13:25.691Z,75.19
2022-12-06T12:18:24.643Z,75.31
2022-12-06T12:23:24.562Z,75.30
2022-12-06T12:28:24.502Z,75.35
2022-12-06T12:33:24.424Z,75.42
2022-12-06T12:38:24.375Z,75.38
2022-12-06T12:43:24.307Z,75.40
2022-12-06T12:48:24.277Z,75.48
2022-12-06T12:53:24.198Z,75.33
2022-12-06T12:58:24.102Z,75.26
2022-12-06T13:08:25.064Z,75.20
2022-12-06T13:13:23.906Z,75.36
2022-12-06T13:18:23.877Z,75.60
2022-12-06T13:23:23.787Z,75.59
2022-12-06T13:28:23.717Z,75.58
2022-12-06T13:33:23.640Z,75.46
2022-12-06T13:38:26.673Z,75.43
2022-12-06T13:43:23.506Z,75.44
2022-12-06T13:48:23.442Z,75.56
2022-12-06T13:53:23.367Z,75.62
2022-12-06T13:58:23.322Z,75.46
2022-12-06T14:03:23.225Z,75.66
2022-12-06T14:08:23.265Z,75.71
2022-12-06T14:13:23.203Z,75.81
2022-12-06T14:18:23.077Z,75.86
2022-12-06T14:23:22.974Z,75.93
2022-12-06T14:28:22.939Z,75.96
2022-12-06T14:33:22.859Z,76.08
2022-12-06T14:38:24.100Z,76.14
2022-12-06T14:43:22.753Z,76.19
2022-12-06T14:48:22.649Z,76.21
2022-12-06T14:53:22.598Z,76.27
2022-12-06T14:58:22.541Z,76.31
2022-12-06T15:03:22.669Z,76.33
2022-12-06T15:08:22.451Z,76.38
2022-12-06T15:13:22.335Z,76.45
2022-12-06T15:18:22.273Z,76.49
2022-12-06T15:23:24.017Z,76.52
2022-12-06T15:28:22.137Z,76.56
2022-12-06T15:33:22.076Z,76.58
2022-12-06T15:38:21.992Z,76.59
2022-12-06T15:43:21.931Z,76.65
2022-12-06T15:48:21.886Z,76.68
2022-12-06T15:53:21.796Z,76.69
2022-12-06T15:58:21.748Z,76.69
2022-12-06T16:03:21.737Z,76.72
2022-12-06T16:08:21.715Z,76.74
2022-12-06T16:13:21.567Z,76.75
2022-12-06T16:18:21.484Z,76.73
2022-12-06T16:23:21.406Z,76.73
2022-12-06T16:28:21.354Z,76.73
2022-12-06T16:33:21.314Z,76.74
2022-12-06T16:38:21.337Z,76.75
2022-12-06T16:43:21.144Z,76.76
2022-12-06T16:48:21.948Z,76.77
2022-12-06T16:53:21.011Z,76.79
2022-12-06T16:58:20.975Z,76.78
2022-12-06T17:03:20.898Z,76.79
2022-12-06T17:08:22.255Z,76.78
2022-12-06T17:13:20.763Z,76.83
2022-12-06T17:18:20.688Z,76.85
2022-12-06T17:23:20.649Z,76.85
2022-12-06T17:28:20.578Z,76.85
2022-12-06T17:33:20.495Z,76.87
2022-12-06T17:38:20.443Z,76.88
2022-12-06T17:43:20.384Z,76.90
2022-12-06T17:48:20.332Z,76.89
2022-12-06T17:53:20.259Z,76.88
2022-12-06T17:58:20.176Z,76.91
2022-12-06T18:03:20.179Z,76.94
2022-12-06T18:08:20.159Z,76.99
2022-12-06T18:13:20.002Z,77.00
2022-12-06T18:18:19.929Z,76.98
2022-12-06T18:23:19.877Z,76.99
2022-12-06T18:28:19.788Z,76.98
2022-12-06T18:33:22.587Z,76.98
2022-12-06T18:38:19.668Z,77.00
2022-12-06T18:43:19.688Z,77.00
2022-12-06T18:48:19.542Z,77.01
2022-12-06T18:53:19.490Z,77.01
2022-12-06T18:58:19.408Z,76.98
2022-12-06T19:03:19.377Z,76.97
2022-12-06T19:08:19.302Z,77.00
2022-12-06T19:13:19.232Z,77.01
2022-12-06T19:18:19.191Z,77.03
2022-12-06T19:23:19.131Z,77.06
2022-12-06T19:28:19.004Z,77.05
2022-12-06T19:33:18.973Z,77.07
2022-12-06T19:38:18.912Z,77.06
2022-12-06T19:43:18.846Z,77.11
2022-12-06T19:48:18.773Z,77.09
2022-12-06T19:53:18.738Z,77.11
2022-12-06T19:58:18.643Z,77.10
2022-12-06T20:03:18.636Z,77.08
2022-12-06T20:08:18.612Z,77.11
2022-12-06T20:13:19.449Z,77.12
2022-12-06T20:18:18.396Z,77.12
2022-12-06T20:23:18.339Z,77.12
2022-12-06T20:28:18.258Z,77.12
2022-12-06T20:33:18.212Z,77.12
2022-12-06T20:38:18.126Z,77.13
2022-12-06T20:43:18.078Z,77.16
2022-12-06T20:48:17.996Z,77.13
2022-12-06T20:53:17.967Z,77.13
2022-12-06T20:58:17.866Z,77.10
2022-12-06T21:03:17.870Z,77.13
2022-12-06T21:08:17.807Z,77.14
2022-12-06T21:13:17.715Z,77.17
2022-12-06T21:18:19.940Z,77.17
2022-12-06T21:23:17.566Z,77.18
2022-12-06T21:28:17.493Z,77.18
2022-12-06T21:33:17.472Z,77.18
2022-12-06T21:38:18.582Z,77.20
2022-12-06T21:43:17.331Z,77.17
2022-12-06T21:48:19.089Z,77.18
2022-12-06T21:53:17.200Z,77.20
2022-12-06T21:58:18.714Z,77.22
2022-12-06T22:03:22.673Z,77.20
2022-12-06T22:08:17.996Z,77.22
2022-12-06T22:13:16.943Z,77.24
2022-12-06T22:18:16.850Z,77.22
2022-12-06T22:23:16.778Z,77.22
2022-12-06T22:28:16.740Z,77.23
2022-12-06T22:33:16.662Z,77.22
2022-12-06T22:38:16.585Z,77.23
2022-12-06T22:43:16.556Z,77.22
2022-12-06T22:48:16.440Z,77.23
2022-12-06T22:53:16.397Z,77.21
2022-12-06T22:58:16.347Z,77.21
2022-12-06T23:03:16.275Z,77.20
2022-12-06T23:08:16.260Z,77.23
2022-12-06T23:13:16.161Z,77.22
2022-12-06T23:18:16.080Z,77.20
2022-12-06T23:23:16.018Z,77.25
2022-12-06T23:28:15.965Z,77.29
2022-12-06T23:33:19.620Z,77.28
2022-12-06T23:38:16.827Z,77.28
2022-12-06T23:43:15.796Z,77.26
2022-12-06T23:48:15.693Z,77.24
2022-12-06T23:53:15.620Z,77.25
2022-12-06T23:58:15.565Z,77.28
